TimePST,TemperatureF,Dew PointF,Humidity,Sea Level PressureIn,VisibilityMPH,Wind Direction,Wind SpeedMPH,Gust SpeedMPH,PrecipitationIn,Events,Conditions,WindDirDegrees,DateUTC
3:15 PM,44.6,32.0,61,30.26,10.0,East,4.6,-,N/A,,Clear,100,2013-01-08 23:15:00
3:35 PM,44.6,32.0,61,30.26,10.0,East,3.5,-,N/A,,Unknown,100,2013-01-08 23:35:00
3:55 PM,44.6,32.0,61,30.27,10.0,Calm,Calm,-,N/A,,Unknown,0,2013-01-08 23:55:00
4:15 PM,42.8,32.0,66,30.27,10.0,East,5.8,-,N/A,,Unknown,100,2013-01-09 00:15:00
4:35 PM,39.2,32.0,75,30.26,10.0,East,5.8,-,N/A,,Unknown,90,2013-01-09 00:35:00
4:55 PM,37.4,30.2,75,30.26,10.0,ENE,5.8,-,N/A,,Unknown,70,2013-01-09 00:55:00
5:15 PM,35.6,28.4,75,30.25,10.0,ESE,3.5,-,N/A,,Clear,110,2013-01-09 01:15:00
5:35 PM,37.4,28.4,70,30.25,10.0,North,3.5,-,N/A,,Clear,10,2013-01-09 01:35:00
5:55 PM,32.0,28.4,87,30.26,10.0,North,5.8,-,N/A,,Clear,10,2013-01-09 01:55:00
6:15 PM,35.6,30.2,81,30.27,10.0,NNE,3.5,-,N/A,,Clear,30,2013-01-09 02:15:00
6:35 PM,32.0,28.4,87,30.26,10.0,ENE,4.6,-,N/A,,Clear,60,2013-01-09 02:35:00
6:55 PM,32.0,26.6,80,30.26,10.0,East,6.9,-,N/A,,Clear,90,2013-01-09 02:55:00
7:15 PM,30.2,26.6,86,30.26,10.0,Calm,Calm,-,N/A,,Clear,0,2013-01-09 03:15:00
7:35 PM,28.4,26.6,93,30.26,10.0,Calm,Calm,-,N/A,,Clear,0,2013-01-09 03:35:00
7:55 PM,32.0,28.4,87,30.26,10.0,Calm,Calm,-,N/A,,Clear,0,2013-01-09 03:55:00
8:15 PM,26.6,24.8,93,30.26,9.0,North,3.5,-,N/A,,Clear,10,2013-01-09 04:15:00
8:35 PM,28.4,24.8,86,30.26,10.0,Calm,Calm,-,N/A,,Clear,0,2013-01-09 04:35:00
8:55 PM,26.6,24.8,93,30.26,7.0,Calm,Calm,-,N/A,,Clear,0,2013-01-09 04:55:00
9:15 PM,24.8,24.8,100,30.26,7.0,NNW,4.6,-,N/A,,Clear,330,2013-01-09 05:15:00
9:35 PM,24.8,23.0,93,30.26,8.0,NW,3.5,-,N/A,,Clear,310,2013-01-09 05:35:00
9:55 PM,24.8,23.0,93,30.26,8.0,North,3.5,-,N/A,,Clear,350,2013-01-09 05:55:00
10:15 PM,24.8,23.0,93,30.26,8.0,Calm,Calm,-,N/A,,Clear,0,2013-01-09 06:15:00
10:35 PM,24.8,23.0,93,30.25,8.0,Calm,Calm,-,N/A,,Clear,0,2013-01-09 06:35:00
10:55 PM,26.6,24.8,93,30.25,5.0,NNW,4.6,-,N/A,,Clear,330,2013-01-09 06:55:00
11:15 PM,23.0,21.2,93,30.24,8.0,NNW,4.6,-,N/A,,Clear,330,2013-01-09 07:15:00
11:35 PM,26.6,24.8,93,30.24,8.0,Calm,Calm,-,N/A,,Unknown,0,2013-01-09 07:35:00
11:55 PM,26.6,26.6,100,30.23,5.0,Calm,Calm,-,N/A,,Mist,0,2013-01-09 07:55:00